createdAt,value
2022-08-24T00:01:40.539Z,20.58
2022-08-24T00:04:32.024Z,20.39
2022-08-24T00:07:27.388Z,20.58
2022-08-24T00:10:17.692Z,20.64
2022-08-24T00:13:06.301Z,20.20
2022-08-24T00:15:55.209Z,20.33
2022-08-24T00:18:48.271Z,20.67
2022-08-24T00:21:36.845Z,20.52
2022-08-24T00:24:25.678Z,20.95
2022-08-24T00:27:14.431Z,20.76
2022-08-24T00:30:04.313Z,20.75
2022-08-24T00:32:54.423Z,20.63
2022-08-24T00:35:44.595Z,20.88
2022-08-24T00:38:35.655Z,21.08
2022-08-24T00:41:24.998Z,20.55
2022-08-24T00:44:15.627Z,20.60
2022-08-24T00:47:12.635Z,21.00
2022-08-24T00:50:06.223Z,21.59
2022-08-24T00:53:01.167Z,21.86
2022-08-24T00:55:53.147Z,21.82
2022-08-24T00:58:47.331Z,21.68
2022-08-24T01:01:47.483Z,21.76
2022-08-24T01:04:42.386Z,21.17
2022-08-24T01:07:32.158Z,21.21
2022-08-24T01:10:25.951Z,21.19
2022-08-24T01:13:16.157Z,21.15
2022-08-24T01:16:08.502Z,21.53
2022-08-24T01:18:56.022Z,21.20
2022-08-24T01:21:54.527Z,21.19
2022-08-24T01:24:44.997Z,21.69
2022-08-24T01:27:36.517Z,21.72
2022-08-24T01:30:30.391Z,21.71
2022-08-24T01:33:24.888Z,21.66
2022-08-24T01:36:21.153Z,21.58
2022-08-24T01:39:20.763Z,21.73
2022-08-24T01:42:11.838Z,22.04
2022-08-24T01:45:04.079Z,21.59
2022-08-24T01:47:52.678Z,21.48
2022-08-24T01:50:41.127Z,21.32
2022-08-24T01:53:30.921Z,21.46
2022-08-24T01:56:19.377Z,21.61
2022-08-24T01:59:12.569Z,21.46
2022-08-24T02:02:07.829Z,21.68
2022-08-24T02:04:56.489Z,21.53
2022-08-24T02:07:46.013Z,21.34
2022-08-24T02:10:35.445Z,21.48
2022-08-24T02:13:25.017Z,21.60
2022-08-24T02:16:15.383Z,21.80
2022-08-24T02:19:03.959Z,21.90
2022-08-24T02:21:53.435Z,22.05
2022-08-24T02:24:42.008Z,21.63
2022-08-24T02:27:30.819Z,21.66
2022-08-24T02:30:19.839Z,21.58
2022-08-24T02:33:09.789Z,21.54
2022-08-24T02:35:58.383Z,21.60
2022-08-24T02:38:46.892Z,21.81
2022-08-24T02:41:39.537Z,22.04
2022-08-24T02:44:28.289Z,21.91
2022-08-24T02:47:17.707Z,21.76
2022-08-24T02:50:12.080Z,22.09
2022-08-24T02:53:00.529Z,22.12
2022-08-24T02:55:49.752Z,22.14
2022-08-24T02:58:39.299Z,22.16
2022-08-24T03:01:30.409Z,22.12
2022-08-24T03:04:20.887Z,22.23
2022-08-24T03:07:10.858Z,21.95
2022-08-24T03:09:59.410Z,21.94
2022-08-24T03:12:48.254Z,21.90
2022-08-24T03:15:36.698Z,21.77
2022-08-24T03:18:26.689Z,21.43
2022-08-24T03:21:15.704Z,21.79
2022-08-24T03:24:07.451Z,21.05
2022-08-24T03:26:56.326Z,20.90
2022-08-24T03:29:47.558Z,20.96
2022-08-24T03:32:38.906Z,20.79
2022-08-24T03:35:27.634Z,20.97
2022-08-24T03:38:16.140Z,20.92
2022-08-24T03:41:06.414Z,20.63
2022-08-24T03:43:56.504Z,20.60
2022-08-24T03:46:46.450Z,20.92
2022-08-24T03:49:35.013Z,20.65
2022-08-24T03:52:23.646Z,20.83
2022-08-24T03:55:14.670Z,20.67
2022-08-24T03:58:04.809Z,20.41
2022-08-24T04:00:54.802Z,20.61
2022-08-24T04:03:46.107Z,20.65
2022-08-24T04:06:35.788Z,20.88
2022-08-24T04:09:24.610Z,20.70
2022-08-24T04:12:13.050Z,20.58
2022-08-24T04:15:03.463Z,20.78
2022-08-24T04:17:52.500Z,20.60
2022-08-24T04:20:42.355Z,20.74
2022-08-24T04:23:47.074Z,21.08
2022-08-24T04:26:45.298Z,21.23
2022-08-24T04:29:36.109Z,21.46
2022-08-24T04:32:25.958Z,21.18
2022-08-24T04:35:16.311Z,21.47
2022-08-24T04:38:04.984Z,21.69
2022-08-24T04:40:54.086Z,21.61
2022-08-24T04:43:45.361Z,21.79
2022-08-24T04:46:35.479Z,21.25
2022-08-24T04:49:25.402Z,21.80
2022-08-24T04:52:13.794Z,21.94
2022-08-24T04:55:04.124Z,21.56
2022-08-24T04:57:56.487Z,21.71
2022-08-24T05:00:45.945Z,21.54
2022-08-24T05:03:35.351Z,21.48
2022-08-24T05:06:26.732Z,21.52
2022-08-24T05:09:15.145Z,21.50
2022-08-24T05:12:05.635Z,21.25
2022-08-24T05:14:59.113Z,21.29
2022-08-24T05:17:51.329Z,21.21
2022-08-24T05:20:41.715Z,21.53
2022-08-24T05:23:31.663Z,21.19
2022-08-24T05:26:24.043Z,21.49
2022-08-24T05:29:12.701Z,21.77
2022-08-24T05:32:06.393Z,22.02
2022-08-24T05:34:54.984Z,22.54
2022-08-24T05:37:44.549Z,22.44
2022-08-24T05:40:38.384Z,22.60
2022-08-24T05:43:26.979Z,22.84
2022-08-24T05:46:17.035Z,22.95
2022-08-24T05:49:08.729Z,22.67
2022-08-24T05:51:57.105Z,22.16
2022-08-24T05:54:47.035Z,22.48
2022-08-24T05:57:38.865Z,22.91
2022-08-24T06:00:45.776Z,23.33
2022-08-24T06:03:34.995Z,23.26
2022-08-24T06:06:25.408Z,23.36
2022-08-24T06:09:14.529Z,23.28
2022-08-24T06:12:03.563Z,23.25
2022-08-24T06:14:54.012Z,23.34
2022-08-24T06:17:44.926Z,23.14
2022-08-24T06:20:34.308Z,23.07
2022-08-24T06:23:23.090Z,22.99
2022-08-24T06:26:37.711Z,22.91
2022-08-24T06:29:26.668Z,22.63
2022-08-24T06:32:20.538Z,23.05
2022-08-24T06:35:11.465Z,23.01
2022-08-24T06:38:00.220Z,23.18
2022-08-24T06:40:48.754Z,23.88
2022-08-24T06:43:37.598Z,23.89
2022-08-24T06:46:33.117Z,23.88
2022-08-24T06:49:23.858Z,24.06
2022-08-24T06:52:12.353Z,24.24
2022-08-24T06:55:01.190Z,24.54
2022-08-24T06:57:52.484Z,24.58
2022-08-24T07:00:42.071Z,24.75
2022-08-24T07:03:30.693Z,24.86
2022-08-24T07:06:36.911Z,24.98
2022-08-24T07:09:25.889Z,25.02
2022-08-24T07:12:14.352Z,24.99
2022-08-24T07:15:03.195Z,25.08
2022-08-24T07:17:57.832Z,25.16
2022-08-24T07:20:46.907Z,25.18
2022-08-24T07:23:58.391Z,25.24
2022-08-24T07:26:47.883Z,25.35
2022-08-24T07:29:50.471Z,25.34
2022-08-24T07:32:45.237Z,25.28
2022-08-24T07:35:34.837Z,25.21
2022-08-24T07:38:23.681Z,25.31
2022-08-24T07:41:38.294Z,25.26
2022-08-24T07:44:23.551Z,25.42
2022-08-24T07:47:37.034Z,25.50
2022-08-24T07:50:23.335Z,25.70
2022-08-24T07:53:15.020Z,25.53
2022-08-24T07:56:07.806Z,25.82
2022-08-24T07:58:59.403Z,26.02
2022-08-24T08:01:48.148Z,26.18
2022-08-24T08:04:36.604Z,26.07
2022-08-24T08:07:25.611Z,25.87
2022-08-24T08:10:14.452Z,25.76
2022-08-24T08:13:03.679Z,24.90
2022-08-24T08:15:59.334Z,25.08
2022-08-24T08:18:56.398Z,25.63
2022-08-24T08:22:12.737Z,26.01
2022-08-24T08:25:34.956Z,25.68
2022-08-24T08:28:35.471Z,26.04
2022-08-24T08:31:26.026Z,25.80
2022-08-24T08:34:16.388Z,26.25
2022-08-24T08:37:05.585Z,26.58
2022-08-24T08:39:54.864Z,26.49
2022-08-24T08:42:58.160Z,26.72
2022-08-24T08:46:14.245Z,26.64
2022-08-24T08:49:51.271Z,26.96
2022-08-24T08:53:17.665Z,27.22
2022-08-24T08:56:21.731Z,27.42
2022-08-24T08:59:22.185Z,26.79
2022-08-24T09:02:35.610Z,26.80
2022-08-24T09:05:59.893Z,26.65
2022-08-24T09:09:08.361Z,26.99
2022-08-24T09:12:07.857Z,27.16
2022-08-24T09:15:16.838Z,27.46
2022-08-24T09:18:17.013Z,27.62
2022-08-24T09:21:31.385Z,27.70
2022-08-24T09:24:43.285Z,27.90
2022-08-24T09:28:02.175Z,27.80
2022-08-24T09:31:06.393Z,27.47
2022-08-24T09:34:10.164Z,26.88
2022-08-24T09:37:12.784Z,26.27
2022-08-24T09:40:17.196Z,26.16
2022-08-24T09:43:36.557Z,26.32
2022-08-24T09:47:08.840Z,26.34
2022-08-24T09:50:36.338Z,27.06
2022-08-24T09:54:18.263Z,26.43
2022-08-24T09:57:50.415Z,27.03
2022-08-24T10:00:47.724Z,26.82
2022-08-24T10:03:51.935Z,27.11
2022-08-24T10:06:55.688Z,26.88
2022-08-24T10:10:04.610Z,27.32
2022-08-24T10:13:04.738Z,27.55
2022-08-24T10:16:07.403Z,27.89
2022-08-24T10:19:07.901Z,26.97
2022-08-24T10:22:05.610Z,27.38
2022-08-24T10:25:11.458Z,27.64
2022-08-24T10:28:16.882Z,28.23
2022-08-24T10:31:12.178Z,28.73
2022-08-24T10:34:29.001Z,29.07
2022-08-24T10:37:42.302Z,29.11
2022-08-24T10:40:39.899Z,29.34
2022-08-24T10:43:49.036Z,29.66
2022-08-24T10:46:49.321Z,29.82
2022-08-24T10:50:13.739Z,29.70
2022-08-24T10:53:15.503Z,29.06
2022-08-24T10:56:12.011Z,29.97
2022-08-24T10:59:16.395Z,28.72
2022-08-24T11:02:12.725Z,28.12
2022-08-24T11:05:08.368Z,29.01
2022-08-24T11:08:03.413Z,29.13
2022-08-24T11:11:14.483Z,28.54
2022-08-24T11:14:10.330Z,28.49
2022-08-24T11:17:17.803Z,28.54
2022-08-24T11:20:29.876Z,28.14
2022-08-24T11:23:29.596Z,29.11
2022-08-24T11:26:30.420Z,29.40
2022-08-24T11:29:23.104Z,28.97
2022-08-24T11:32:27.701Z,28.85
2022-08-24T11:35:27.574Z,28.17
2022-08-24T11:38:27.151Z,27.87
2022-08-24T11:41:26.992Z,27.41
2022-08-24T11:44:36.400Z,27.68
2022-08-24T11:47:51.928Z,28.11
2022-08-24T11:50:50.404Z,28.29
2022-08-24T11:53:46.766Z,29.06
2022-08-24T11:56:44.555Z,28.90
2022-08-24T11:59:43.286Z,29.56
2022-08-24T12:02:37.598Z,30.13
2022-08-24T12:05:32.055Z,31.17
2022-08-24T12:08:28.731Z,32.24
2022-08-24T12:11:25.273Z,32.08
2022-08-24T12:14:23.114Z,32.02
2022-08-24T12:17:20.532Z,31.16
2022-08-24T12:20:23.252Z,32.12
2022-08-24T12:23:17.038Z,30.39
2022-08-24T12:26:10.911Z,30.98
2022-08-24T12:29:03.051Z,31.62
2022-08-24T12:31:56.342Z,32.30
2022-08-24T12:34:59.106Z,32.63
2022-08-24T12:37:52.303Z,32.54
2022-08-24T12:40:46.242Z,32.41
2022-08-24T12:43:49.553Z,31.52
2022-08-24T12:46:45.222Z,31.25
2022-08-24T12:49:50.382Z,31.89
2022-08-24T12:53:15.265Z,32.19
2022-08-24T12:56:47.224Z,31.81
2022-08-24T12:59:43.800Z,32.38
2022-08-24T13:02:47.638Z,32.33
2022-08-24T13:05:45.141Z,32.08
2022-08-24T13:08:38.406Z,31.74
2022-08-24T13:11:32.415Z,32.22
2022-08-24T13:14:24.264Z,31.93
2022-08-24T13:17:14.682Z,32.16
2022-08-24T13:20:20.193Z,32.34
2022-08-24T13:23:18.857Z,32.41
2022-08-24T13:26:26.711Z,32.33
2022-08-24T13:29:17.607Z,32.31
2022-08-24T13:32:08.355Z,32.33
2022-08-24T13:34:59.198Z,31.98
2022-08-24T13:38:27.087Z,31.78
2022-08-24T13:41:30.355Z,31.72
2022-08-24T13:44:26.765Z,31.75
2022-08-24T13:47:20.967Z,31.51
2022-08-24T13:50:15.589Z,31.63
2022-08-24T13:53:31.120Z,31.27
2022-08-24T13:56:32.758Z,30.27
2022-08-24T13:59:53.587Z,30.73
2022-08-24T14:02:59.840Z,31.05
2022-08-24T14:05:52.121Z,30.64
2022-08-24T14:08:51.548Z,29.54
2022-08-24T14:11:56.024Z,29.94
2022-08-24T14:15:03.693Z,30.01
2022-08-24T14:18:03.545Z,30.62
2022-08-24T14:21:09.867Z,31.57
2022-08-24T14:24:04.109Z,31.49
2022-08-24T14:27:08.281Z,31.24
2022-08-24T14:30:35.598Z,31.39
2022-08-24T14:33:30.739Z,31.51
2022-08-24T14:36:22.099Z,31.34
2022-08-24T14:39:20.947Z,31.73
2022-08-24T14:42:18.233Z,31.50
2022-08-24T14:45:10.454Z,32.09
2022-08-24T14:48:05.967Z,31.41
2022-08-24T14:51:02.131Z,32.39
2022-08-24T14:54:00.651Z,32.33
2022-08-24T14:57:00.431Z,32.35
2022-08-24T15:00:01.740Z,32.73
2022-08-24T15:03:25.973Z,32.57
2022-08-24T15:06:27.826Z,32.39
2022-08-24T15:09:24.120Z,32.51
2022-08-24T15:12:21.336Z,32.88
2022-08-24T15:15:19.124Z,32.85
2022-08-24T15:18:34.863Z,33.33
2022-08-24T15:21:34.635Z,33.66
2022-08-24T15:24:36.948Z,32.98
2022-08-24T15:27:34.683Z,32.78
2022-08-24T15:30:28.362Z,33.64
2022-08-24T15:33:19.629Z,33.68
2022-08-24T15:36:12.059Z,34.06
2022-08-24T15:39:01.727Z,34.20
2022-08-24T15:41:50.593Z,34.38
2022-08-24T15:44:41.228Z,34.08
2022-08-24T15:47:33.240Z,33.96
2022-08-24T15:50:25.287Z,33.32
2022-08-24T15:53:30.423Z,32.27
2022-08-24T15:56:36.109Z,30.98
2022-08-24T15:59:29.748Z,30.59
2022-08-24T16:02:28.647Z,29.35
2022-08-24T16:05:38.350Z,27.16
2022-08-24T16:08:26.768Z,27.55
2022-08-24T16:11:27.577Z,27.33
2022-08-24T16:14:26.152Z,26.65
2022-08-24T16:17:27.744Z,27.06
2022-08-24T16:20:32.780Z,27.39
2022-08-24T16:23:28.378Z,27.32
2022-08-24T16:26:23.939Z,27.26
2022-08-24T16:29:45.219Z,27.22
2022-08-24T16:32:49.816Z,27.22
2022-08-24T16:35:40.959Z,27.18
2022-08-24T16:38:31.347Z,26.84
2022-08-24T16:41:22.385Z,25.60
2022-08-24T16:44:11.779Z,25.23
2022-08-24T16:47:00.178Z,25.26
2022-08-24T16:49:49.212Z,25.18
2022-08-24T16:52:39.006Z,25.48
2022-08-24T16:55:28.638Z,25.45
2022-08-24T16:58:17.743Z,25.15
2022-08-24T17:01:06.403Z,25.65
2022-08-24T17:03:55.429Z,25.40
2022-08-24T17:06:44.484Z,25.83
2022-08-24T17:09:36.649Z,26.15
2022-08-24T17:12:27.097Z,26.23
2022-08-24T17:15:16.342Z,26.20
2022-08-24T17:18:07.551Z,26.23
2022-08-24T17:20:55.935Z,26.06
2022-08-24T17:23:44.631Z,25.99
2022-08-24T17:26:34.818Z,26.02
2022-08-24T17:29:24.116Z,25.64
2022-08-24T17:32:13.140Z,25.61
2022-08-24T17:35:03.259Z,25.47
2022-08-24T17:37:53.730Z,25.43
2022-08-24T17:40:42.042Z,25.48
2022-08-24T17:43:32.152Z,25.03
2022-08-24T17:46:22.092Z,25.18
2022-08-24T17:49:12.352Z,24.74
2022-08-24T17:52:00.806Z,23.32
2022-08-24T17:54:49.300Z,22.94
2022-08-24T17:57:38.785Z,23.79
2022-08-24T18:00:28.845Z,23.15
2022-08-24T18:03:17.417Z,22.99
2022-08-24T18:06:06.138Z,23.30
2022-08-24T18:08:56.803Z,23.35
2022-08-24T18:11:45.293Z,23.81
2022-08-24T18:14:34.698Z,24.18
2022-08-24T18:17:31.465Z,23.22
2022-08-24T18:20:24.180Z,23.77
2022-08-24T18:23:13.066Z,23.02
2022-08-24T18:26:06.094Z,23.42
2022-08-24T18:28:55.662Z,23.30
2022-08-24T18:31:44.751Z,23.79
2022-08-24T18:34:35.119Z,24.01
2022-08-24T18:37:24.330Z,23.94
2022-08-24T18:40:20.392Z,23.87
2022-08-24T18:43:10.294Z,24.04
2022-08-24T18:45:59.077Z,23.94
2022-08-24T18:48:47.548Z,24.10
2022-08-24T18:51:38.395Z,23.93
2022-08-24T18:54:31.659Z,24.06
2022-08-24T18:57:20.664Z,23.65
2022-08-24T19:00:11.965Z,23.53
2022-08-24T19:03:05.685Z,23.51
2022-08-24T19:05:54.412Z,23.80
2022-08-24T19:08:44.229Z,23.85
2022-08-24T19:11:32.590Z,23.82
2022-08-24T19:14:21.096Z,23.82
2022-08-24T19:17:09.583Z,23.81
2022-08-24T19:19:58.413Z,23.88
2022-08-24T19:22:47.746Z,23.95
2022-08-24T19:25:38.915Z,23.94
2022-08-24T19:28:27.907Z,23.79
2022-08-24T19:31:16.663Z,23.72
2022-08-24T19:34:05.439Z,23.78
2022-08-24T19:36:55.018Z,23.77
2022-08-24T19:39:43.612Z,23.63
2022-08-24T19:42:36.779Z,23.58
2022-08-24T19:45:44.980Z,23.66
2022-08-24T19:48:34.873Z,23.66
2022-08-24T19:51:23.401Z,23.73
2022-08-24T19:54:12.093Z,23.64
2022-08-24T19:57:02.012Z,23.77
2022-08-24T19:59:52.597Z,23.76
2022-08-24T20:02:41.083Z,23.78
2022-08-24T20:05:30.117Z,23.80
2022-08-24T20:08:20.089Z,23.77
2022-08-24T20:11:09.402Z,23.74
2022-08-24T20:13:57.761Z,23.76
2022-08-24T20:16:47.624Z,23.72
2022-08-24T20:19:40.173Z,23.68
2022-08-24T20:22:29.326Z,23.73
2022-08-24T20:25:18.725Z,23.69
2022-08-24T20:31:19.038Z,23.52
2022-08-24T20:34:08.859Z,23.60
2022-08-24T20:36:58.674Z,23.58
2022-08-24T20:39:47.080Z,23.58
2022-08-24T20:42:35.591Z,23.52
2022-08-24T20:45:23.960Z,23.53
2022-08-24T20:48:13.827Z,23.54
2022-08-24T20:51:03.657Z,23.58
2022-08-24T20:53:52.092Z,23.56
2022-08-24T20:56:40.523Z,23.48
2022-08-24T20:59:29.042Z,23.49
2022-08-24T21:02:17.420Z,23.48
2022-08-24T21:05:06.742Z,23.45
2022-08-24T21:07:58.042Z,23.38
2022-08-24T21:10:47.738Z,23.42
2022-08-24T21:13:36.192Z,23.39
2022-08-24T21:16:24.886Z,23.30
2022-08-24T21:19:17.845Z,23.34
2022-08-24T21:22:06.402Z,23.32
2022-08-24T21:24:56.220Z,23.21
2022-08-24T21:27:47.596Z,23.27
2022-08-24T21:30:36.032Z,23.31
2022-08-24T21:33:42.061Z,23.25
2022-08-24T21:36:31.926Z,23.19
2022-08-24T21:39:20.486Z,23.23
2022-08-24T21:42:10.773Z,23.25
2022-08-24T21:44:59.187Z,23.30
2022-08-24T21:47:47.682Z,23.25
2022-08-24T21:50:36.223Z,23.30
2022-08-24T21:53:28.439Z,23.30
2022-08-24T21:56:23.612Z,23.22
2022-08-24T21:59:13.821Z,23.15
2022-08-24T22:02:04.174Z,23.15
2022-08-24T22:04:56.791Z,23.13
2022-08-24T22:07:45.808Z,23.14
2022-08-24T22:10:34.162Z,23.09
2022-08-24T22:13:22.597Z,23.11
2022-08-24T22:16:13.422Z,23.11
2022-08-24T22:19:02.215Z,23.13
2022-08-24T22:21:50.815Z,23.11
2022-08-24T22:24:39.166Z,23.10
2022-08-24T22:27:27.654Z,23.00
2022-08-24T22:30:18.414Z,22.97
2022-08-24T22:33:09.357Z,22.96
2022-08-24T22:35:57.849Z,22.93
2022-08-24T22:38:46.455Z,22.83
2022-08-24T22:41:35.355Z,22.65
2022-08-24T22:44:24.283Z,22.75
2022-08-24T22:47:13.401Z,22.61
2022-08-24T22:50:05.648Z,22.67
2022-08-24T22:52:54.559Z,22.70
2022-08-24T22:55:43.067Z,22.68
2022-08-24T22:58:31.571Z,22.67
2022-08-24T23:01:21.864Z,22.62
2022-08-24T23:04:13.117Z,22.64
2022-08-24T23:07:03.890Z,22.56
2022-08-24T23:09:52.339Z,22.38
2022-08-24T23:12:40.841Z,22.27
2022-08-24T23:15:29.514Z,22.30
2022-08-24T23:18:31.990Z,22.31
2022-08-24T23:21:21.039Z,22.33
2022-08-24T23:24:13.213Z,22.36
2022-08-24T23:27:02.681Z,22.42
2022-08-24T23:29:51.328Z,22.46
2022-08-24T23:32:40.827Z,22.50
2022-08-24T23:35:29.621Z,22.53
2022-08-24T23:38:18.323Z,22.46
2022-08-24T23:41:12.685Z,22.38
2022-08-24T23:44:02.614Z,22.33
2022-08-24T23:46:51.447Z,22.27
2022-08-24T23:49:41.801Z,22.33
2022-08-24T23:52:30.747Z,22.37
2022-08-24T23:55:21.082Z,22.42
2022-08-24T23:58:11.473Z,22.26
